createdAt,value
2023-11-18T00:01:36.512Z,7.53
2023-11-18T00:04:03.671Z,7.03
2023-11-18T00:06:30.610Z,7.80
2023-11-18T00:08:57.516Z,7.88
2023-11-18T00:11:25.618Z,7.70
2023-11-18T00:13:55.177Z,7.53
2023-11-18T00:16:23.572Z,7.53
2023-11-18T00:18:50.456Z,7.38
2023-11-18T00:21:17.963Z,7.43
2023-11-18T00:23:46.316Z,7.28
2023-11-18T00:26:14.331Z,7.35
2023-11-18T00:28:43.113Z,7.85
2023-11-18T00:31:09.992Z,7.75
2023-11-18T00:33:36.863Z,7.90
2023-11-18T00:36:04.469Z,7.93
2023-11-18T00:38:31.628Z,8.23
2023-11-18T00:40:58.497Z,7.28
2023-11-18T00:43:25.315Z,7.65
2023-11-18T00:45:53.684Z,7.50
2023-11-18T00:48:20.554Z,8.18
2023-11-18T00:50:47.498Z,7.35
2023-11-18T00:53:18.520Z,7.13
2023-11-18T00:55:45.507Z,8.55
2023-11-18T00:58:12.565Z,7.65
2023-11-18T01:00:39.415Z,7.93
2023-11-18T01:03:07.662Z,6.82
2023-11-18T01:05:35.732Z,7.97
2023-11-18T01:08:02.540Z,7.15
2023-11-18T01:10:30.617Z,8.68
2023-11-18T01:12:58.878Z,8.10
2023-11-18T01:15:25.678Z,8.40
2023-11-18T01:17:52.620Z,7.45
2023-11-18T01:20:23.680Z,7.97
2023-11-18T01:22:50.853Z,7.53
2023-11-18T01:25:20.480Z,8.57
2023-11-18T01:27:50.276Z,7.60
2023-11-18T01:30:17.138Z,7.28
2023-11-18T01:32:44.220Z,8.13
2023-11-18T01:35:14.103Z,8.07
2023-11-18T01:37:42.484Z,7.38
2023-11-18T01:40:10.216Z,7.60
2023-11-18T01:42:38.253Z,7.15
2023-11-18T01:45:06.681Z,7.20
2023-11-18T01:47:34.913Z,7.20
2023-11-18T01:50:03.545Z,7.25
2023-11-18T01:52:31.783Z,6.80
2023-11-18T01:55:01.176Z,8.27
2023-11-18T01:57:28.292Z,6.95
2023-11-18T01:59:55.745Z,7.07
2023-11-18T02:02:22.780Z,6.72
2023-11-18T02:04:50.582Z,7.65
2023-11-18T02:07:18.234Z,6.80
2023-11-18T02:09:46.891Z,7.93
2023-11-18T02:12:24.547Z,7.18
2023-11-18T02:14:52.932Z,7.15
2023-11-18T02:17:25.370Z,7.45
2023-11-18T02:19:53.357Z,6.68
2023-11-18T02:22:22.968Z,7.80
2023-11-18T02:24:50.146Z,6.30
2023-11-18T02:27:21.550Z,8.40
2023-11-18T02:29:50.243Z,7.68
2023-11-18T02:32:25.216Z,7.15
2023-11-18T02:34:59.764Z,8.05
2023-11-18T02:37:28.473Z,8.18
2023-11-18T02:40:05.373Z,7.53
2023-11-18T02:42:34.386Z,7.78
2023-11-18T02:45:01.942Z,7.75
2023-11-18T02:47:29.113Z,8.85
2023-11-18T02:50:07.251Z,8.68
2023-11-18T02:52:36.746Z,8.93
2023-11-18T02:55:04.122Z,7.35
2023-11-18T02:57:31.029Z,8.18
2023-11-18T03:00:01.288Z,7.97
2023-11-18T03:02:31.139Z,8.55
2023-11-18T03:04:58.094Z,7.45
2023-11-18T03:07:25.070Z,8.35
2023-11-18T03:09:51.813Z,7.85
2023-11-18T03:12:18.652Z,8.18
2023-11-18T03:14:45.924Z,10.27
2023-11-18T03:17:14.522Z,9.15
2023-11-18T03:19:43.003Z,9.27
2023-11-18T03:22:09.814Z,8.20
2023-11-18T03:24:36.543Z,9.45
2023-11-18T03:27:03.768Z,8.88
2023-11-18T03:29:30.557Z,8.88
2023-11-18T03:31:58.530Z,9.00
2023-11-18T03:34:26.779Z,8.80
2023-11-18T03:36:53.572Z,8.20
2023-11-18T03:39:20.365Z,8.48
2023-11-18T03:41:47.149Z,8.05
2023-11-18T03:44:14.082Z,8.13
2023-11-18T03:46:42.387Z,8.20
2023-11-18T03:49:09.218Z,8.82
2023-11-18T03:51:37.357Z,8.82
2023-11-18T03:54:05.128Z,9.25
2023-11-18T03:56:31.970Z,8.13
2023-11-18T03:58:58.827Z,7.45
2023-11-18T04:01:29.385Z,7.88
2023-11-18T04:03:56.582Z,8.50
2023-11-18T04:06:25.358Z,8.07
2023-11-18T04:08:53.826Z,8.25
2023-11-18T04:11:20.920Z,9.25
2023-11-18T04:13:47.705Z,9.40
2023-11-18T04:16:16.539Z,9.02
2023-11-18T04:18:45.170Z,9.20
2023-11-18T04:21:13.120Z,8.75
2023-11-18T04:23:41.171Z,8.25
2023-11-18T04:26:10.444Z,8.57
2023-11-18T04:28:37.879Z,8.82
2023-11-18T04:31:06.662Z,9.30
2023-11-18T04:33:34.587Z,8.70
2023-11-18T04:36:01.592Z,8.98
2023-11-18T04:38:28.520Z,8.70
2023-11-18T04:40:55.752Z,5.45
2023-11-18T04:43:34.495Z,8.18
2023-11-18T04:46:06.861Z,9.82
2023-11-18T04:48:34.534Z,9.15
2023-11-18T04:51:02.638Z,7.85
2023-11-18T04:53:29.430Z,6.75
2023-11-18T04:55:56.439Z,7.22
2023-11-18T04:58:25.232Z,7.78
2023-11-18T05:00:52.539Z,7.82
2023-11-18T05:03:19.539Z,9.25
2023-11-18T05:05:47.919Z,8.25
2023-11-18T05:08:20.213Z,9.73
2023-11-18T05:10:48.580Z,8.65
2023-11-18T05:13:17.647Z,8.07
2023-11-18T05:15:46.816Z,8.73
2023-11-18T05:18:16.320Z,8.52
2023-11-18T05:20:43.705Z,9.85
2023-11-18T05:23:13.530Z,8.88
2023-11-18T05:25:41.715Z,9.93
2023-11-18T05:28:09.854Z,8.90
2023-11-18T05:30:37.088Z,8.93
2023-11-18T05:33:08.597Z,9.25
2023-11-18T05:35:36.239Z,10.00
2023-11-18T05:38:07.547Z,8.18
2023-11-18T05:40:37.274Z,10.13
2023-11-18T05:43:07.526Z,9.52
2023-11-18T05:45:54.253Z,9.63
2023-11-18T05:48:23.181Z,9.38
2023-11-18T05:50:49.986Z,8.93
2023-11-18T05:53:16.956Z,6.85
2023-11-18T05:55:43.713Z,8.50
2023-11-18T05:58:11.216Z,9.55
2023-11-18T06:00:41.699Z,9.23
2023-11-18T06:03:09.069Z,8.82
2023-11-18T06:05:37.280Z,8.80
2023-11-18T06:08:05.597Z,8.27
2023-11-18T06:10:33.270Z,9.88
2023-11-18T06:13:00.230Z,9.32
2023-11-18T06:15:28.851Z,9.52
2023-11-18T06:17:57.209Z,9.30
2023-11-18T06:20:24.903Z,9.27
2023-11-18T06:22:53.100Z,9.88
2023-11-18T06:25:20.196Z,9.55
2023-11-18T06:27:47.065Z,9.88
2023-11-18T06:30:14.212Z,10.60
2023-11-18T06:32:42.126Z,9.95
2023-11-18T06:35:12.682Z,9.75
2023-11-18T06:37:39.494Z,8.07
2023-11-18T06:40:17.430Z,10.13
2023-11-18T06:42:48.383Z,10.32
2023-11-18T06:45:16.147Z,9.50
2023-11-18T06:47:46.724Z,9.90
2023-11-18T06:50:17.358Z,8.50
2023-11-18T06:52:47.275Z,8.43
2023-11-18T06:55:16.463Z,8.52
2023-11-18T06:57:45.519Z,8.30
2023-11-18T07:00:15.480Z,8.93
2023-11-18T07:02:42.358Z,8.35
2023-11-18T07:05:09.969Z,8.55
2023-11-18T07:07:38.537Z,6.65
2023-11-18T07:10:06.751Z,8.35
2023-11-18T07:12:35.431Z,8.07
2023-11-18T07:15:02.210Z,7.38
2023-11-18T07:17:29.060Z,7.65
2023-11-18T07:19:56.809Z,7.18
2023-11-18T07:22:23.667Z,7.45
2023-11-18T07:24:50.414Z,7.57
2023-11-18T07:27:17.366Z,7.13
2023-11-18T07:29:46.345Z,6.15
2023-11-18T07:32:13.176Z,7.63
2023-11-18T07:34:40.102Z,7.07
2023-11-18T07:37:06.866Z,6.97
2023-11-18T07:39:45.831Z,6.93
2023-11-18T07:42:13.404Z,7.43
2023-11-18T07:44:41.764Z,7.25
2023-11-18T07:47:10.059Z,7.38
2023-11-18T07:49:37.120Z,7.03
2023-11-18T07:52:04.494Z,7.18
2023-11-18T07:54:31.761Z,6.60
2023-11-18T07:56:59.150Z,6.40
2023-11-18T07:59:26.081Z,5.07
2023-11-18T08:01:54.676Z,5.95
2023-11-18T08:04:23.079Z,5.90
2023-11-18T08:06:50.592Z,6.47
2023-11-18T08:09:23.827Z,6.60
2023-11-18T08:11:50.710Z,5.88
2023-11-18T08:14:18.306Z,6.82
2023-11-18T08:16:45.441Z,5.30
2023-11-18T08:19:12.306Z,6.43
2023-11-18T08:21:40.538Z,5.75
2023-11-18T08:24:09.238Z,5.80
2023-11-18T08:26:36.313Z,6.65
2023-11-18T08:29:03.528Z,6.93
2023-11-18T08:31:30.371Z,6.10
2023-11-18T08:33:57.413Z,5.82
2023-11-18T08:36:27.636Z,6.05
2023-11-18T08:38:57.705Z,5.95
2023-11-18T08:41:24.741Z,7.75
2023-11-18T08:43:51.953Z,6.40
2023-11-18T08:46:20.154Z,7.13
2023-11-18T08:48:49.237Z,6.00
2023-11-18T08:51:17.722Z,5.13
2023-11-18T08:53:44.683Z,6.22
2023-11-18T08:56:15.501Z,5.03
2023-11-18T08:58:43.708Z,6.72
2023-11-18T09:01:16.554Z,6.65
2023-11-18T09:03:54.136Z,6.63
2023-11-18T09:06:30.384Z,5.38
2023-11-18T09:08:59.153Z,5.95
2023-11-18T09:11:30.486Z,6.32
2023-11-18T09:14:02.383Z,6.78
2023-11-18T09:16:34.312Z,6.90
2023-11-18T09:19:03.770Z,6.28
2023-11-18T09:21:31.258Z,5.78
2023-11-18T09:23:58.513Z,6.75
2023-11-18T09:26:39.322Z,7.07
2023-11-18T09:29:10.009Z,6.35
2023-11-18T09:31:38.794Z,5.63
2023-11-18T09:34:07.781Z,6.30
2023-11-18T09:36:35.172Z,5.25
2023-11-18T09:39:04.799Z,4.93
2023-11-18T09:41:33.495Z,6.03
2023-11-18T09:44:04.826Z,6.55
2023-11-18T09:46:41.935Z,6.15
2023-11-18T09:49:18.786Z,5.80
2023-11-18T09:51:49.684Z,6.57
2023-11-18T09:54:25.148Z,5.70
2023-11-18T09:57:09.544Z,4.00
2023-11-18T09:59:46.010Z,5.53
2023-11-18T10:02:15.098Z,6.28
2023-11-18T10:05:23.814Z,5.53
2023-11-18T10:07:52.347Z,5.13
2023-11-18T10:10:22.045Z,5.43
2023-11-18T10:12:59.428Z,4.97
2023-11-18T10:15:28.241Z,5.40
2023-11-18T10:17:58.732Z,5.32
2023-11-18T10:20:45.948Z,4.82
2023-11-18T10:23:15.739Z,5.32
2023-11-18T10:25:47.648Z,5.35
2023-11-18T10:30:49.882Z,5.03
2023-11-18T10:33:18.916Z,4.00
2023-11-18T10:35:52.498Z,3.88
2023-11-18T10:38:19.883Z,5.07
2023-11-18T10:40:47.838Z,4.40
2023-11-18T10:43:18.159Z,4.15
2023-11-18T10:45:48.134Z,4.53
2023-11-18T10:48:17.826Z,5.53
2023-11-18T10:50:51.191Z,5.15
2023-11-18T10:53:20.078Z,3.80
2023-11-18T10:55:47.292Z,4.32
2023-11-18T10:58:15.705Z,4.18
2023-11-18T11:00:50.355Z,4.00
2023-11-18T11:03:17.496Z,3.85
2023-11-18T11:05:45.130Z,3.00
2023-11-18T11:08:15.479Z,3.95
2023-11-18T11:10:42.992Z,4.15
2023-11-18T11:13:10.666Z,3.72
2023-11-18T11:15:51.700Z,4.05
2023-11-18T11:18:36.668Z,3.05
2023-11-18T11:21:17.177Z,4.22
2023-11-18T11:23:58.871Z,4.13
2023-11-18T11:26:40.170Z,4.05
2023-11-18T11:29:21.292Z,3.58
2023-11-18T11:31:58.601Z,3.72
2023-11-18T11:34:30.817Z,4.20
2023-11-18T11:39:31.359Z,3.65
2023-11-18T11:42:00.154Z,3.90
2023-11-18T11:44:32.142Z,3.33
2023-11-18T11:47:01.946Z,3.65
2023-11-18T11:49:38.300Z,3.97
2023-11-18T11:52:16.458Z,3.67
2023-11-18T11:54:51.175Z,4.32
2023-11-18T11:57:18.045Z,3.17
2023-11-18T11:59:58.743Z,3.72
2023-11-18T12:02:30.842Z,4.43
2023-11-18T12:05:00.562Z,3.95
2023-11-18T12:07:36.126Z,4.00
2023-11-18T12:10:08.824Z,3.90
2023-11-18T12:12:36.069Z,4.15
2023-11-18T12:15:26.344Z,4.38
2023-11-18T12:18:18.997Z,3.55
2023-11-18T12:20:56.875Z,4.00
2023-11-18T12:25:59.000Z,3.92
2023-11-18T12:28:37.080Z,3.80
2023-11-18T12:31:14.593Z,3.25
2023-11-18T12:34:03.794Z,3.45
2023-11-18T12:37:13.521Z,3.80
2023-11-18T12:40:25.507Z,3.28
2023-11-18T12:43:08.905Z,3.15
2023-11-18T12:46:15.984Z,3.65
2023-11-18T12:48:47.881Z,3.13
2023-11-18T12:53:50.198Z,2.58
2023-11-18T12:56:20.219Z,2.75
2023-11-18T12:58:48.761Z,3.05
2023-11-18T13:01:17.252Z,2.33
2023-11-18T13:03:45.427Z,3.35
2023-11-18T13:06:13.146Z,2.45
2023-11-18T13:08:40.978Z,2.60
2023-11-18T13:11:14.047Z,3.00
2023-11-18T13:13:41.870Z,2.45
2023-11-18T13:16:10.782Z,2.80
2023-11-18T13:18:45.368Z,2.33
2023-11-18T13:21:16.553Z,2.13
2023-11-18T13:23:46.604Z,2.40
2023-11-18T13:26:13.501Z,2.45
2023-11-18T13:28:40.557Z,2.08
2023-11-18T13:31:10.868Z,2.17
2023-11-18T13:33:40.653Z,2.15
2023-11-18T13:36:11.272Z,2.30
2023-11-18T13:38:38.717Z,2.58
2023-11-18T13:41:06.363Z,2.40
2023-11-18T13:43:43.211Z,2.05
2023-11-18T13:46:13.409Z,2.40
2023-11-18T13:48:41.999Z,1.80
2023-11-18T13:51:13.987Z,2.13
2023-11-18T13:53:42.076Z,2.42
2023-11-18T13:56:13.653Z,2.00
2023-11-18T13:58:41.165Z,1.77
2023-11-18T14:01:09.184Z,2.00
2023-11-18T14:03:38.188Z,2.20
2023-11-18T14:06:11.796Z,1.95
2023-11-18T14:08:39.283Z,1.90
2023-11-18T14:11:13.664Z,2.22
2023-11-18T14:13:43.673Z,1.73
2023-11-18T14:16:11.064Z,1.50
2023-11-18T14:18:38.030Z,1.52
2023-11-18T14:21:07.120Z,1.35
2023-11-18T14:23:35.428Z,1.55
2023-11-18T14:26:02.240Z,1.23
2023-11-18T14:28:32.236Z,1.02
2023-11-18T14:30:59.105Z,1.13
2023-11-18T14:33:26.088Z,1.50
2023-11-18T14:35:53.077Z,1.05
2023-11-18T14:38:22.284Z,1.35
2023-11-18T14:40:50.500Z,1.10
2023-11-18T14:43:18.106Z,0.90
2023-11-18T14:45:44.900Z,1.20
2023-11-18T14:48:12.168Z,1.10
2023-11-18T14:50:39.607Z,0.80
2023-11-18T14:53:07.143Z,1.17
2023-11-18T14:55:34.329Z,1.15
2023-11-18T14:58:02.663Z,0.90
2023-11-18T15:00:33.363Z,1.20
2023-11-18T15:03:02.286Z,1.20
2023-11-18T15:05:32.290Z,1.17
2023-11-18T15:08:02.272Z,0.98
2023-11-18T15:10:32.191Z,1.02
2023-11-18T15:13:04.683Z,1.33
2023-11-18T15:15:33.445Z,0.98
2023-11-18T15:18:07.456Z,0.73
2023-11-18T15:20:36.622Z,0.68
2023-11-18T15:23:04.199Z,0.82
2023-11-18T15:25:31.608Z,0.95
2023-11-18T15:27:59.933Z,0.65
2023-11-18T15:30:29.818Z,0.88
2023-11-18T15:32:58.999Z,0.82
2023-11-18T15:35:26.482Z,0.75
2023-11-18T15:37:55.825Z,0.40
2023-11-18T15:40:27.093Z,0.80
2023-11-18T15:42:55.119Z,0.80
2023-11-18T15:45:26.275Z,0.75
2023-11-18T15:47:56.760Z,0.80
2023-11-18T15:50:23.754Z,0.65
2023-11-18T15:52:55.059Z,0.73
2023-11-18T15:55:22.853Z,0.70
2023-11-18T15:57:54.427Z,0.93
2023-11-18T16:02:52.272Z,0.40
2023-11-18T16:05:27.758Z,0.95
2023-11-18T16:07:56.137Z,0.70
2023-11-18T16:10:24.603Z,0.75
2023-11-18T16:12:52.723Z,0.40
2023-11-18T16:15:20.896Z,0.70
2023-11-18T16:17:48.633Z,0.70
2023-11-18T16:20:18.512Z,0.85
2023-11-18T16:22:49.420Z,0.80
2023-11-18T16:25:19.321Z,0.68
2023-11-18T16:27:46.499Z,0.80
2023-11-18T16:30:14.085Z,0.60
2023-11-18T16:32:41.417Z,0.63
2023-11-18T16:35:17.484Z,0.50
2023-11-18T16:37:44.467Z,0.65
2023-11-18T16:40:17.637Z,0.60
2023-11-18T16:42:44.982Z,0.80
2023-11-18T16:45:12.473Z,0.70
2023-11-18T16:47:41.712Z,0.57
2023-11-18T16:50:09.504Z,0.70
2023-11-18T16:52:42.231Z,0.60
2023-11-18T16:55:10.268Z,0.60
2023-11-18T16:57:39.081Z,0.60
2023-11-18T17:00:16.858Z,0.75
2023-11-18T17:02:44.808Z,0.82
2023-11-18T17:05:11.732Z,0.60
2023-11-18T17:07:38.690Z,0.98
2023-11-18T17:10:12.482Z,0.73
2023-11-18T17:12:42.442Z,0.80
2023-11-18T17:15:14.405Z,1.10
2023-11-18T17:17:41.828Z,0.73
2023-11-18T17:20:15.876Z,0.70
2023-11-18T17:22:43.573Z,0.63
2023-11-18T17:25:14.459Z,0.70
2023-11-18T17:27:43.913Z,0.63
2023-11-18T17:30:17.417Z,0.70
2023-11-18T17:32:46.678Z,0.65
2023-11-18T17:35:17.126Z,0.75
2023-11-18T17:37:45.244Z,0.57
2023-11-18T17:40:12.906Z,1.00
2023-11-18T17:42:40.594Z,0.82
2023-11-18T17:45:10.325Z,0.75
2023-11-18T17:47:39.182Z,0.60
2023-11-18T17:50:10.114Z,0.63
2023-11-18T17:52:37.216Z,0.77
2023-11-18T17:55:04.954Z,0.80
2023-11-18T17:57:31.925Z,0.60
2023-11-18T17:59:58.841Z,0.60
2023-11-18T18:02:27.483Z,0.95
2023-11-18T18:04:54.337Z,1.00
2023-11-18T18:07:21.094Z,0.77
2023-11-18T18:09:47.807Z,0.90
2023-11-18T18:12:14.633Z,0.93
2023-11-18T18:14:41.469Z,1.05
2023-11-18T18:17:08.481Z,0.90
2023-11-18T18:19:38.149Z,1.30
2023-11-18T18:22:05.119Z,1.02
2023-11-18T18:24:34.370Z,1.10
2023-11-18T18:27:01.323Z,1.30
2023-11-18T18:29:28.684Z,1.00
2023-11-18T18:31:55.724Z,1.00
2023-11-18T18:34:22.457Z,1.15
2023-11-18T18:36:50.882Z,1.10
2023-11-18T18:39:47.929Z,1.33
2023-11-18T18:42:14.867Z,1.52
2023-11-18T18:44:42.078Z,1.33
2023-11-18T18:47:09.931Z,1.00
2023-11-18T18:49:37.659Z,1.30
2023-11-18T18:52:06.273Z,1.95
2023-11-18T18:54:38.259Z,1.35
2023-11-18T18:57:06.837Z,1.38
2023-11-18T18:59:33.687Z,1.10
2023-11-18T19:02:01.471Z,1.35
2023-11-18T19:04:28.280Z,1.17
2023-11-18T19:06:56.216Z,1.50
2023-11-18T19:09:24.721Z,1.65
2023-11-18T19:11:51.871Z,1.30
2023-11-18T19:14:21.405Z,1.58
2023-11-18T19:16:48.630Z,1.33
2023-11-18T19:19:18.385Z,1.75
2023-11-18T19:21:45.335Z,1.42
2023-11-18T19:24:15.652Z,1.35
2023-11-18T19:26:43.812Z,1.17
2023-11-18T19:29:10.682Z,1.10
2023-11-18T19:31:37.487Z,1.08
2023-11-18T19:34:04.648Z,1.27
2023-11-18T19:36:31.740Z,1.58
2023-11-18T19:38:58.563Z,1.60
2023-11-18T19:41:25.336Z,1.80
2023-11-18T19:43:54.313Z,1.60
2023-11-18T19:46:22.247Z,1.70
2023-11-18T19:48:49.026Z,1.60
2023-11-18T19:51:15.830Z,1.90
2023-11-18T19:53:42.574Z,2.10
2023-11-18T19:56:10.751Z,1.77
2023-11-18T19:58:37.627Z,1.85
2023-11-18T20:01:06.499Z,1.90
2023-11-18T20:03:41.770Z,1.85
2023-11-18T20:06:08.830Z,1.52
2023-11-18T20:08:35.774Z,1.98
2023-11-18T20:11:04.436Z,1.77
2023-11-18T20:13:31.882Z,1.45
2023-11-18T20:15:58.733Z,1.90
2023-11-18T20:18:26.964Z,1.80
2023-11-18T20:20:55.587Z,1.42
2023-11-18T20:23:24.101Z,1.40
2023-11-18T20:25:51.103Z,1.40
2023-11-18T20:28:17.862Z,1.27
2023-11-18T20:30:44.900Z,1.17
2023-11-18T20:33:13.336Z,1.42
2023-11-18T20:35:41.842Z,1.30
2023-11-18T20:38:08.801Z,1.60
2023-11-18T20:40:35.588Z,1.35
2023-11-18T20:43:04.061Z,2.08
2023-11-18T20:45:30.848Z,1.60
2023-11-18T20:47:57.898Z,2.10
2023-11-18T20:50:25.833Z,1.30
2023-11-18T20:52:54.126Z,1.67
2023-11-18T20:57:50.903Z,1.88
2023-11-18T21:00:18.488Z,1.58
2023-11-18T21:02:47.587Z,1.63
2023-11-18T21:05:15.201Z,2.08
2023-11-18T21:07:42.902Z,2.10
2023-11-18T21:10:17.367Z,1.83
2023-11-18T21:12:45.002Z,1.75
2023-11-18T21:15:13.548Z,2.10
2023-11-18T21:17:40.600Z,2.10
2023-11-18T21:20:13.906Z,2.35
2023-11-18T21:22:42.066Z,2.00
2023-11-18T21:25:12.679Z,2.10
2023-11-18T21:27:41.109Z,2.05
2023-11-18T21:30:12.061Z,2.85
2023-11-18T21:32:46.610Z,2.03
2023-11-18T21:35:15.996Z,2.30
2023-11-18T21:37:43.352Z,1.95
2023-11-18T21:40:14.414Z,2.10
2023-11-18T21:42:43.297Z,1.60
2023-11-18T21:45:31.363Z,2.10
2023-11-18T21:48:02.226Z,2.17
2023-11-18T21:50:29.411Z,1.95
2023-11-18T21:52:56.261Z,2.20
2023-11-18T21:55:23.218Z,2.40
2023-11-18T21:57:51.512Z,2.55
2023-11-18T22:00:19.013Z,3.00
2023-11-18T22:02:47.289Z,2.50
2023-11-18T22:05:14.760Z,2.63
2023-11-18T22:07:43.072Z,3.75
2023-11-18T22:10:16.624Z,3.10
2023-11-18T22:12:43.558Z,3.25
2023-11-18T22:15:17.344Z,2.90
2023-11-18T22:17:45.042Z,3.60
2023-11-18T22:20:13.525Z,4.20
2023-11-18T22:22:40.800Z,3.40
2023-11-18T22:25:09.213Z,3.80
2023-11-18T22:27:37.388Z,4.28
2023-11-18T22:30:05.141Z,4.30
2023-11-18T22:32:34.614Z,5.28
2023-11-18T22:35:02.017Z,5.10
2023-11-18T22:37:28.912Z,4.50
2023-11-18T22:39:58.050Z,4.55
2023-11-18T22:42:26.034Z,4.85
2023-11-18T22:44:52.939Z,4.93
2023-11-18T22:47:20.532Z,5.57
2023-11-18T22:49:48.701Z,4.57
2023-11-18T22:52:15.433Z,4.43
2023-11-18T22:54:42.470Z,5.40
2023-11-18T22:57:11.187Z,5.20
2023-11-18T22:59:38.105Z,5.70
2023-11-18T23:02:04.981Z,4.90
2023-11-18T23:04:31.807Z,4.07
2023-11-18T23:07:00.200Z,4.30
2023-11-18T23:09:27.803Z,4.82
2023-11-18T23:11:59.520Z,4.75
2023-11-18T23:14:26.357Z,4.78
2023-11-18T23:16:54.557Z,5.47
2023-11-18T23:19:21.743Z,5.18
2023-11-18T23:21:48.627Z,4.47
2023-11-18T23:24:16.876Z,4.15
2023-11-18T23:26:43.686Z,5.07
2023-11-18T23:29:10.772Z,3.97
2023-11-18T23:31:37.757Z,4.85
2023-11-18T23:34:05.535Z,3.97
2023-11-18T23:36:32.783Z,5.07
2023-11-18T23:39:03.952Z,5.25
2023-11-18T23:41:32.445Z,4.57
2023-11-18T23:43:59.797Z,5.03
2023-11-18T23:46:28.138Z,5.10
2023-11-18T23:48:55.276Z,4.43
2023-11-18T23:51:22.358Z,4.55
2023-11-18T23:53:49.098Z,4.13
2023-11-18T23:56:16.119Z,4.07
2023-11-18T23:58:44.209Z,4.38
